Time;durP1;ratioP1;P1;durP2;ratioP2;P2;SDS_P1;SDS_P2;PMS_P1;PMS_P2;Temp;Humidity;BMP_temperature;BMP_pressure;BME280_temperature;BME280_humidity;BME280_pressure;Samples;Min_cycle;Max_cycle;Signal;HPM_P1;HPM_P2
2023/03/23 00:00:53;;;;;;;5.28;3.53;;;6.70;82.00;;;;;;5034041;28;20061;-80
2023/03/23 00:03:21;;;;;;;5.40;2.65;;;6.80;82.00;;;;;;5028225;28;20046;-80
2023/03/23 00:05:50;;;;;;;4.60;3.30;;;6.70;82.00;;;;;;5021243;28;20021;-81
2023/03/23 00:08:22;;;;;;;4.88;3.45;;;6.80;82.20;;;;;;5015055;28;20026;-80
2023/03/23 00:11:00;;;;;;;5.68;3.10;;;6.80;82.20;;;;;;5036525;28;20040;-80
2023/03/23 00:13:28;;;;;;;5.82;2.95;;;6.80;82.20;;;;;;5028414;28;20026;-82
2023/03/23 00:15:56;;;;;;;4.25;3.20;;;6.80;82.10;;;;;;5037444;28;20021;-79
2023/03/23 00:18:23;;;;;;;4.05;3.25;;;6.80;82.20;;;;;;5021757;28;20033;-80
2023/03/23 00:20:54;;;;;;;6.82;3.22;;;6.70;82.30;;;;;;5026066;28;20064;-81
2023/03/23 00:23:22;;;;;;;3.75;2.80;;;6.70;82.40;;;;;;5012909;28;20021;-81
2023/03/23 00:25:58;;;;;;;4.18;3.13;;;6.80;82.40;;;;;;5011441;28;20048;-80
2023/03/23 00:28:26;;;;;;;4.82;3.33;;;6.80;82.40;;;;;;5011759;28;20383;-82
2023/03/23 00:31:06;;;;;;;4.97;2.88;;;6.80;82.30;;;;;;5030709;28;20435;-81
2023/03/23 00:33:37;;;;;;;5.10;3.33;;;6.80;82.40;;;;;;5023076;28;20021;-81
2023/03/23 00:36:13;;;;;;;4.70;3.05;;;6.80;82.30;;;;;;5030970;28;20097;-81
2023/03/23 00:38:41;;;;;;;5.22;2.85;;;6.80;82.40;;;;;;5030042;28;20083;-81
2023/03/23 00:41:07;;;;;;;3.35;3.05;;;6.80;82.30;;;;;;5016919;28;20034;-81
2023/03/23 00:43:36;;;;;;;4.13;3.40;;;6.80;82.20;;;;;;5031507;28;20475;-81
2023/03/23 00:46:09;;;;;;;6.65;3.47;;;6.80;82.20;;;;;;5016961;28;20045;-82
2023/03/23 00:48:44;;;;;;;4.97;3.53;;;6.80;82.30;;;;;;5031395;28;20022;-82
2023/03/23 00:51:13;;;;;;;3.92;3.30;;;6.80;82.40;;;;;;5030145;28;20021;-82
2023/03/23 00:53:40;;;;;;;4.95;3.53;;;6.80;82.40;;;;;;5030884;28;20014;-81
2023/03/23 00:56:08;;;;;;;6.60;3.72;;;6.80;82.40;;;;;;5018783;28;20034;-81
2023/03/23 00:58:33;;;;;;;;;;;6.80;82.50;;;;;;5013340;28;20541;-81
2023/03/23 01:00:59;;;;;;;4.47;3.17;;;6.70;82.40;;;;;;5023386;28;19917;-79
2023/03/23 01:03:25;;;;;;;4.57;3.25;;;6.70;82.60;;;;;;5029882;28;20511;-79
2023/03/23 01:05:52;;;;;;;6.95;4.07;;;6.70;82.70;;;;;;5033887;28;20025;-80
2023/03/23 01:08:19;;;;;;;6.10;3.42;;;6.70;82.80;;;;;;5022292;28;20029;-81
2023/03/23 01:10:45;;;;;;;4.23;3.30;;;6.80;82.90;;;;;;5024282;28;20033;-82
2023/03/23 01:13:12;;;;;;;6.30;3.97;;;6.70;82.90;;;;;;5012263;28;20022;-82
2023/03/23 01:15:38;;;;;;;4.32;3.50;;;6.80;83.00;;;;;;5034739;28;20029;-80
2023/03/23 01:18:05;;;;;;;4.00;3.40;;;6.80;82.90;;;;;;5036756;28;20375;-82
2023/03/23 01:20:31;;;;;;;3.95;3.53;;;6.80;82.90;;;;;;5041707;28;20034;-80
2023/03/23 01:23:00;;;;;;;4.30;3.53;;;6.80;82.90;;;;;;5030184;28;20023;-80
2023/03/23 01:25:28;;;;;;;4.68;3.55;;;6.70;83.10;;;;;;5028704;28;20053;-81
2023/03/23 01:27:54;;;;;;;3.53;3.13;;;6.70;83.10;;;;;;5015092;28;20079;-82
2023/03/23 01:30:20;;;;;;;5.55;3.65;;;6.70;83.10;;;;;;5003130;28;20084;-80
2023/03/23 01:32:46;;;;;;;5.15;3.00;;;6.70;83.80;;;;;;5015210;28;20018;-81
2023/03/23 01:35:15;;;;;;;4.70;3.63;;;6.70;83.40;;;;;;5016834;28;20026;-81
2023/03/23 01:37:41;;;;;;;5.72;3.75;;;6.70;83.60;;;;;;5017455;28;20045;-81
2023/03/23 01:40:08;;;;;;;3.85;2.72;;;6.70;83.70;;;;;;5016213;28;20034;-81
2023/03/23 01:42:36;;;;;;;4.13;3.38;;;6.70;83.90;;;;;;5030303;28;20033;-80
2023/03/23 01:45:28;;;;;;;4.78;3.30;;;6.70;84.10;;;;;;5026390;28;20410;-81
2023/03/23 01:48:17;;;;;;;5.03;3.97;;;6.70;84.20;;;;;;5032521;28;20106;-80
2023/03/23 01:50:47;;;;;;;5.68;3.72;;;6.70;84.30;;;;;;5024087;28;20447;-82
2023/03/23 01:53:13;;;;;;;3.10;2.50;;;6.60;85.00;;;;;;5036226;28;20025;-80
2023/03/23 01:55:43;;;;;;;5.63;3.92;;;6.60;84.60;;;;;;5021436;28;20100;-81
2023/03/23 01:58:10;;;;;;;8.30;3.28;;;6.60;84.80;;;;;;5032853;28;20081;-81
2023/03/23 02:00:40;;;;;;;6.20;3.40;;;6.60;84.80;;;;;;5033376;28;20033;-80
2023/03/23 02:03:08;;;;;;;5.85;3.78;;;6.60;85.00;;;;;;5030120;28;20099;-80
2023/03/23 02:05:38;;;;;;;4.35;2.85;;;6.60;84.90;;;;;;5041060;28;20032;-81
2023/03/23 02:08:06;;;;;;;4.47;2.95;;;6.70;84.90;;;;;;5017856;28;20025;-80
2023/03/23 02:10:33;;;;;;;6.70;3.50;;;6.70;84.80;;;;;;5023166;28;20025;-80
2023/03/23 02:13:01;;;;;;;5.18;3.60;;;6.60;84.60;;;;;;5025243;28;20494;-80
2023/03/23 02:15:39;;;;;;;5.22;3.53;;;6.70;84.70;;;;;;5031826;28;20037;-80
2023/03/23 02:18:27;;;;;;;6.25;3.20;;;6.70;84.70;;;;;;5025755;28;20029;-81
2023/03/23 02:21:35;;;;;;;5.82;3.97;;;6.60;84.80;;;;;;5026117;28;20034;-82
2023/03/23 02:24:06;;;;;;;5.18;3.55;;;6.60;84.80;;;;;;5014500;28;20033;-80
2023/03/23 02:27:23;;;;;;;6.15;3.75;;;6.60;84.80;;;;;;5028870;28;20016;-79
2023/03/23 02:29:49;;;;;;;;;;;6.60;84.80;;;;;;5015766;28;20117;-82
2023/03/23 02:32:48;;;;;;;4.38;3.72;;;6.60;84.60;;;;;;5023151;28;19952;-79
2023/03/23 02:35:46;;;;;;;5.00;3.55;;;6.50;84.90;;;;;;5021302;28;20018;-78
2023/03/23 02:38:19;;;;;;;4.60;3.60;;;6.40;85.10;;;;;;5013230;28;20045;-82
2023/03/23 02:40:48;;;;;;;5.05;3.50;;;6.30;85.40;;;;;;5040613;28;20057;-80
2023/03/23 02:43:17;;;;;;;7.07;3.83;;;6.20;85.70;;;;;;5036446;28;20017;-81
2023/03/23 02:45:45;;;;;;;5.95;3.90;;;6.20;86.00;;;;;;5030908;28;20075;-79
2023/03/23 02:48:15;;;;;;;7.22;4.10;;;6.10;86.30;;;;;;5032106;28;20014;-80
2023/03/23 02:50:44;;;;;;;4.40;3.05;;;6.10;86.60;;;;;;5030784;28;20045;-81
2023/03/23 02:53:14;;;;;;;6.05;3.85;;;6.20;87.40;;;;;;5031231;28;20017;-80
2023/03/23 02:55:42;;;;;;;5.95;4.05;;;6.20;86.90;;;;;;5029864;28;20032;-79
2023/03/23 02:58:12;;;;;;;5.35;3.33;;;6.20;86.90;;;;;;5029071;28;20168;-80
2023/03/23 03:00:38;;;;;;;6.72;3.40;;;6.20;87.10;;;;;;5019226;28;20049;-82
2023/03/23 03:03:07;;;;;;;5.45;3.90;;;6.30;87.20;;;;;;5028155;28;20097;-80
2023/03/23 03:05:52;;;;;;;6.00;3.58;;;6.30;87.30;;;;;;5024159;28;20014;-81
2023/03/23 03:08:44;;;;;;;6.07;4.10;;;6.30;87.40;;;;;;5025515;28;20082;-80
2023/03/23 03:11:13;;;;;;;5.80;3.67;;;6.30;87.50;;;;;;5000763;28;20072;-81
2023/03/23 03:13:47;;;;;;;4.60;3.53;;;6.30;87.40;;;;;;5028190;28;20410;-80
2023/03/23 03:16:37;;;;;;;6.53;4.43;;;6.20;87.50;;;;;;5025703;28;20022;-81
2023/03/23 03:19:07;;;;;;;6.28;4.57;;;6.20;87.60;;;;;;5032407;28;20022;-81
2023/03/23 03:21:41;;;;;;;7.40;4.50;;;6.20;87.80;;;;;;5021185;28;20479;-80
2023/03/23 03:24:10;;;;;;;5.30;3.63;;;6.20;88.10;;;;;;5019114;28;20482;-80
2023/03/23 03:26:40;;;;;;;7.80;4.43;;;6.10;88.00;;;;;;5021251;28;20089;-79
2023/03/23 03:29:07;;;;;;;3.83;3.20;;;6.10;88.20;;;;;;5026645;28;20026;-79
2023/03/23 03:31:38;;;;;;;6.78;3.63;;;6.10;88.40;;;;;;5032433;28;20049;-81
2023/03/23 03:34:04;;;;;;;5.72;3.60;;;6.10;88.70;;;;;;5016514;28;20034;-80
2023/03/23 03:36:37;;;;;;;6.93;3.88;;;6.10;88.70;;;;;;5031654;28;20371;-80
2023/03/23 03:39:09;;;;;;;5.03;3.55;;;6.10;89.00;;;;;;5031658;28;20089;-81
2023/03/23 03:41:36;;;;;;;5.60;3.85;;;6.00;89.20;;;;;;5030519;28;20025;-81
2023/03/23 03:44:06;;;;;;;5.47;3.92;;;6.00;89.40;;;;;;5017900;28;20026;-81
2023/03/23 03:46:33;;;;;;;4.88;3.38;;;6.00;89.40;;;;;;5020185;28;20026;-80
2023/03/23 03:49:00;;;;;;;5.85;4.30;;;5.90;89.50;;;;;;5031276;28;20025;-81
2023/03/23 03:51:28;;;;;;;6.32;3.63;;;5.90;89.70;;;;;;5030500;28;20072;-82
2023/03/23 03:53:53;;;;;;;;;;;5.80;90.00;;;;;;5030613;28;20030;-81
2023/03/23 03:56:21;;;;;;;5.30;4.57;;;5.70;89.80;;;;;;5025281;28;20000;-82
2023/03/23 03:58:49;;;;;;;6.93;4.75;;;5.60;90.20;;;;;;5037962;28;20050;-81
2023/03/23 04:01:21;;;;;;;5.70;4.00;;;5.60;90.40;;;;;;5040002;28;20367;-81
2023/03/23 04:03:47;;;;;;;5.93;4.28;;;5.60;90.50;;;;;;5026725;28;20762;-81
2023/03/23 04:06:13;;;;;;;8.07;4.30;;;5.60;90.70;;;;;;5023696;28;20025;-79
2023/03/23 04:08:41;;;;;;;5.50;4.07;;;5.50;90.80;;;;;;5026135;28;20081;-82
2023/03/23 04:11:08;;;;;;;5.38;4.28;;;5.60;91.00;;;;;;5023888;28;20025;-81
2023/03/23 04:13:34;;;;;;;9.13;5.60;;;5.60;91.30;;;;;;5027544;28;20018;-81
2023/03/23 04:16:00;;;;;;;5.53;4.75;;;5.80;91.50;;;;;;5026549;28;20093;-81
2023/03/23 04:18:27;;;;;;;7.00;5.35;;;6.00;91.40;;;;;;5032888;28;20056;-82
2023/03/23 04:20:52;;;;;;;7.75;5.43;;;6.20;91.10;;;;;;5034731;28;20037;-81
2023/03/23 04:23:21;;;;;;;5.78;4.60;;;6.50;90.60;;;;;;5034528;28;20087;-80
2023/03/23 04:25:49;;;;;;;8.77;5.55;;;6.80;90.30;;;;;;5037546;28;20033;-81
2023/03/23 04:28:18;;;;;;;7.55;5.72;;;7.00;89.50;;;;;;5023352;28;20068;-80
2023/03/23 04:30:45;;;;;;;7.43;5.78;;;7.30;88.70;;;;;;5023686;28;20426;-82
2023/03/23 04:33:15;;;;;;;14.25;6.43;;;7.40;87.50;;;;;;5013934;28;20498;-80
2023/03/23 04:35:45;;;;;;;9.98;6.15;;;7.30;86.60;;;;;;5014570;28;20030;-81
2023/03/23 04:38:12;;;;;;;9.55;6.03;;;7.00;87.00;;;;;;5001109;28;20032;-82
2023/03/23 04:40:40;;;;;;;11.53;6.57;;;6.70;87.90;;;;;;5013528;28;20403;-80
2023/03/23 04:43:06;;;;;;;10.70;6.57;;;6.50;88.50;;;;;;5003944;28;20018;-79
2023/03/23 04:45:34;;;;;;;9.40;7.07;;;6.40;89.10;;;;;;5028111;28;20032;-80
2023/03/23 04:48:01;;;;;;;9.35;5.97;;;6.30;89.60;;;;;;5031855;28;20032;-81
2023/03/23 04:50:32;;;;;;;13.98;7.28;;;6.20;90.00;;;;;;5031364;28;20033;-82
2023/03/23 04:53:05;;;;;;;10.23;6.45;;;6.10;90.20;;;;;;5030657;28;20025;-81
2023/03/23 04:55:42;;;;;;;11.77;7.03;;;6.10;90.40;;;;;;5031188;28;20026;-81
2023/03/23 04:58:08;;;;;;;8.57;6.18;;;6.00;90.50;;;;;;5029494;28;20506;-83
2023/03/23 05:00:35;;;;;;;9.20;5.57;;;6.00;90.70;;;;;;5030268;28;20435;-83
2023/03/23 05:03:01;;;;;;;9.75;7.35;;;6.00;90.80;;;;;;5021805;28;20054;-81
2023/03/23 05:05:30;;;;;;;12.20;6.80;;;6.00;90.90;;;;;;5033739;28;20053;-81
2023/03/23 05:07:56;;;;;;;8.45;5.40;;;6.00;91.00;;;;;;5025792;28;20021;-82
2023/03/23 05:10:22;;;;;;;12.00;7.45;;;6.00;91.00;;;;;;5034244;28;20026;-81
2023/03/23 05:12:48;;;;;;;11.40;7.40;;;6.00;91.10;;;;;;5032218;28;20100;-81
2023/03/23 05:15:16;;;;;;;10.35;7.57;;;6.00;91.20;;;;;;5033632;28;20446;-82
2023/03/23 05:17:45;;;;;;;17.30;8.00;;;6.10;91.30;;;;;;5032325;28;20460;-81
2023/03/23 05:20:14;;;;;;;10.85;7.35;;;6.10;91.20;;;;;;5029324;28;20079;-82
2023/03/23 05:22:41;;;;;;;9.43;6.85;;;6.20;91.30;;;;;;5018671;28;20018;-81
2023/03/23 05:25:08;;;;;;;11.10;8.23;;;6.20;91.30;;;;;;5027270;28;20057;-82
2023/03/23 05:27:35;;;;;;;11.98;8.18;;;6.20;91.30;;;;;;5029011;28;20021;-82
2023/03/23 05:30:02;;;;;;;11.90;7.65;;;6.20;91.30;;;;;;5025459;28;20030;-82
2023/03/23 05:32:31;;;;;;;9.32;7.05;;;6.20;91.40;;;;;;5016114;28;20081;-82
2023/03/23 05:34:58;;;;;;;13.45;8.30;;;6.20;91.60;;;;;;5025232;28;20103;-83
2023/03/23 05:37:26;;;;;;;13.05;7.97;;;6.30;91.40;;;;;;5032280;28;20029;-82
2023/03/23 05:39:55;;;;;;;8.13;6.68;;;6.30;91.40;;;;;;5034200;28;20037;-80
2023/03/23 05:42:22;;;;;;;11.85;7.53;;;6.40;91.20;;;;;;5032616;28;20328;-81
2023/03/23 05:44:49;;;;;;;13.57;7.85;;;6.40;91.20;;;;;;5033278;28;20021;-82
2023/03/23 05:47:15;;;;;;;12.00;7.97;;;6.50;91.30;;;;;;5034599;28;20038;-81
2023/03/23 05:49:41;;;;;;;11.90;7.70;;;6.50;91.20;;;;;;5033734;28;20091;-80
2023/03/23 05:52:07;;;;;;;11.65;7.82;;;6.50;91.10;;;;;;5026128;28;20037;-81
2023/03/23 05:54:34;;;;;;;12.85;7.50;;;6.60;91.00;;;;;;5033106;28;20022;-81
2023/03/23 05:57:03;;;;;;;15.00;8.00;;;6.50;91.00;;;;;;5024328;28;20053;-81
2023/03/23 05:59:29;;;;;;;11.50;7.30;;;6.60;91.00;;;;;;5030145;28;20034;-82
2023/03/23 06:01:55;;;;;;;13.00;9.23;;;6.60;91.00;;;;;;5022956;28;20021;-81
2023/03/23 06:04:24;;;;;;;12.43;7.78;;;6.70;91.00;;;;;;5024726;28;20125;-83
2023/03/23 06:06:51;;;;;;;15.43;8.15;;;6.70;90.90;;;;;;5011750;28;20034;-81
2023/03/23 06:09:18;;;;;;;11.50;8.10;;;6.80;90.80;;;;;;5020078;28;20019;-81
2023/03/23 06:11:45;;;;;;;10.33;8.40;;;6.80;90.70;;;;;;5023804;28;20079;-83
2023/03/23 06:14:12;;;;;;;12.93;8.25;;;6.90;90.70;;;;;;5020610;28;20077;-83
2023/03/23 06:16:38;;;;;;;10.50;7.28;;;7.00;90.60;;;;;;5034581;28;20387;-82
2023/03/23 06:19:04;;;;;;;11.65;9.38;;;7.00;90.60;;;;;;5017298;28;20550;-82
2023/03/23 06:21:33;;;;;;;16.23;8.95;;;7.10;90.50;;;;;;5023512;28;20022;-82
2023/03/23 06:24:00;;;;;;;16.02;9.38;;;7.20;90.50;;;;;;5023268;28;20056;-82
2023/03/23 06:26:31;;;;;;;14.15;9.48;;;7.30;90.40;;;;;;5020936;28;20026;-80
2023/03/23 06:28:57;;;;;;;14.80;8.32;;;7.40;90.20;;;;;;5027101;28;20474;-80
2023/03/23 06:31:24;;;;;;;15.25;9.88;;;7.40;90.00;;;;;;5028096;28;20029;-79
2023/03/23 06:33:51;;;;;;;13.25;8.48;;;7.60;89.70;;;;;;5009509;28;20116;-81
2023/03/23 06:36:17;;;;;;;12.18;7.65;;;7.60;89.40;;;;;;5010954;28;20030;-81
2023/03/23 06:38:43;;;;;;;14.40;9.65;;;7.70;89.20;;;;;;5028095;28;20049;-80
2023/03/23 06:41:09;;;;;;;12.18;9.00;;;7.70;89.10;;;;;;5028997;28;20033;-81
2023/03/23 06:43:37;;;;;;;11.35;8.68;;;7.80;88.80;;;;;;5038667;28;20076;-86
2023/03/23 06:46:07;;;;;;;9.85;7.93;;;7.90;88.60;;;;;;5019394;28;20029;-89
2023/03/23 06:48:33;;;;;;;11.48;7.78;;;8.00;88.70;;;;;;5022448;28;20076;-89
2023/03/23 06:51:00;;;;;;;11.73;8.82;;;8.10;88.20;;;;;;5030933;28;20026;-87
2023/03/23 06:53:26;;;;;;;13.93;8.50;;;8.20;87.90;;;;;;5001004;28;20029;-84
2023/03/23 06:55:52;;;;;;;12.82;7.18;;;8.30;87.50;;;;;;5016808;28;20022;-83
2023/03/23 06:58:18;;;;;;;13.50;8.68;;;8.30;87.30;;;;;;5040762;28;20491;-84
2023/03/23 07:00:44;;;;;;;12.65;8.75;;;8.40;86.90;;;;;;5025148;28;20037;-84
2023/03/23 07:03:10;;;;;;;11.15;8.05;;;8.50;86.80;;;;;;5021981;28;20068;-85
2023/03/23 07:05:36;;;;;;;11.25;7.57;;;8.60;86.30;;;;;;5033417;28;20391;-85
2023/03/23 07:08:03;;;;;;;10.35;7.93;;;8.70;85.90;;;;;;5024596;28;20483;-86
2023/03/23 07:10:29;;;;;;;9.60;7.55;;;8.80;85.70;;;;;;5030339;28;20021;-85
2023/03/23 07:12:55;;;;;;;13.48;8.82;;;8.90;85.20;;;;;;5019766;28;20499;-85
2023/03/23 07:15:21;;;;;;;15.93;8.45;;;9.00;84.90;;;;;;5013012;28;20030;-84
2023/03/23 07:17:47;;;;;;;10.90;8.88;;;9.10;84.60;;;;;;5028137;28;20391;-87
2023/03/23 07:20:14;;;;;;;13.65;8.73;;;9.30;84.20;;;;;;5027207;28;20045;-86
2023/03/23 07:22:40;;;;;;;11.65;7.00;;;9.50;83.60;;;;;;5026691;28;20866;-86
2023/03/23 07:25:07;;;;;;;12.45;8.35;;;10.30;83.30;;;;;;5026966;28;20018;-88
2023/03/23 07:27:33;;;;;;;9.25;7.10;;;11.60;79.00;;;;;;5025240;28;20053;-87
2023/03/23 07:29:59;;;;;;;10.27;6.88;;;13.20;74.80;;;;;;5032689;28;20018;-85
2023/03/23 07:32:25;;;;;;;10.15;6.75;;;14.50;69.70;;;;;;5021168;28;20041;-87
2023/03/23 07:34:51;;;;;;;12.30;6.85;;;15.30;65.50;;;;;;5019061;28;20056;-86
2023/03/23 07:37:17;;;;;;;9.32;6.88;;;15.90;63.30;;;;;;5017992;28;20034;-85
2023/03/23 07:39:43;;;;;;;11.07;7.95;;;16.50;60.50;;;;;;5015875;28;20038;-86
2023/03/23 07:42:10;;;;;;;10.32;7.55;;;17.00;59.60;;;;;;5018872;28;20511;-84
2023/03/23 07:44:36;;;;;;;10.03;7.60;;;17.70;57.50;;;;;;5014284;28;20060;-85
2023/03/23 07:47:02;;;;;;;10.07;7.32;;;18.80;55.80;;;;;;5031299;28;20021;-84
2023/03/23 07:49:30;;;;;;;9.57;6.90;;;19.90;53.20;;;;;;5016084;28;20028;-86
2023/03/23 07:51:57;;;;;;;12.07;7.93;;;20.80;50.10;;;;;;5016340;28;20041;-86
2023/03/23 07:54:24;;;;;;;14.18;8.00;;;21.50;48.30;;;;;;5018631;28;20068;-85
2023/03/23 07:56:50;;;;;;;10.70;7.47;;;22.00;46.80;;;;;;5022253;28;20093;-85
2023/03/23 07:59:16;;;;;;;9.88;6.63;;;22.70;45.80;;;;;;5020758;28;20018;-86
2023/03/23 08:01:43;;;;;;;8.52;6.18;;;23.20;44.00;;;;;;5021972;28;20387;-85
2023/03/23 08:04:09;;;;;;;8.80;6.88;;;23.20;42.70;;;;;;5021638;28;20078;-86
2023/03/23 08:06:35;;;;;;;8.65;6.32;;;23.50;42.20;;;;;;5017606;28;20076;-86
2023/03/23 08:09:08;;;;;;;12.52;6.93;;;23.70;41.10;;;;;;5017933;28;20059;-85
2023/03/23 08:11:35;;;;;;;9.10;6.45;;;23.60;40.70;;;;;;5025760;28;20030;-86
2023/03/23 08:14:02;;;;;;;9.02;6.15;;;23.60;40.70;;;;;;5022047;28;20042;-86
2023/03/23 08:16:29;;;;;;;7.05;6.25;;;23.10;40.20;;;;;;5030151;28;20026;-86
2023/03/23 08:18:56;;;;;;;8.52;6.68;;;23.10;41.10;;;;;;5023503;28;20045;-87
2023/03/23 08:21:22;;;;;;;9.75;5.82;;;23.80;40.40;;;;;;5017003;28;20125;-87
2023/03/23 08:23:48;;;;;;;7.10;5.65;;;24.10;39.10;;;;;;5030750;28;20033;-86
2023/03/23 08:26:15;;;;;;;12.43;6.38;;;24.20;38.30;;;;;;5026739;28;20021;-87
2023/03/23 08:28:43;;;;;;;9.98;6.25;;;24.20;38.70;;;;;;5016668;28;20080;-86
2023/03/23 08:31:11;;;;;;;7.43;6.13;;;25.50;36.70;;;;;;5015872;28;20052;-86
2023/03/23 08:33:38;;;;;;;8.23;5.90;;;25.50;36.80;;;;;;5016319;28;20163;-87
2023/03/23 08:36:06;;;;;;;10.60;6.07;;;26.40;36.30;;;;;;5031897;28;20112;-87
2023/03/23 08:38:32;;;;;;;8.52;5.53;;;27.20;35.40;;;;;;5017735;28;20022;-88
2023/03/23 08:41:04;;;;;;;8.45;5.85;;;27.00;34.20;;;;;;5026167;28;20041;-87
2023/03/23 08:43:34;;;;;;;10.80;6.40;;;26.40;35.00;;;;;;5034350;28;20057;-87
2023/03/23 08:46:06;;;;;;;9.63;7.18;;;26.50;35.00;;;;;;5021062;28;20575;-87
2023/03/23 08:48:33;;;;;;;9.13;6.38;;;26.80;34.80;;;;;;5028291;28;20057;-87
2023/03/23 08:51:00;;;;;;;14.57;6.93;;;27.00;34.80;;;;;;5026812;28;20105;-85
2023/03/23 08:53:30;;;;;;;10.27;6.95;;;27.20;34.20;;;;;;5026874;28;20025;-85
2023/03/23 08:55:56;;;;;;;9.77;6.93;;;26.60;34.10;;;;;;5026718;28;20052;-85
2023/03/23 08:58:22;;;;;;;8.23;7.43;;;25.90;34.80;;;;;;5021844;28;20061;-86
2023/03/23 09:00:48;;;;;;;10.30;7.72;;;25.30;35.10;;;;;;5036370;28;20034;-85
2023/03/23 09:03:15;;;;;;;8.80;6.57;;;25.30;35.50;;;;;;5020158;28;20050;-85
2023/03/23 09:05:45;;;;;;;8.45;7.20;;;25.70;35.30;;;;;;5017632;28;20022;-84
2023/03/23 09:08:12;;;;;;;8.23;6.38;;;25.00;35.40;;;;;;5019104;28;20053;-85
2023/03/23 09:10:38;;;;;;;7.63;6.30;;;25.10;35.50;;;;;;5022893;28;20049;-86
2023/03/23 09:13:05;;;;;;;7.82;6.40;;;25.20;35.70;;;;;;5027958;28;20022;-83
2023/03/23 09:15:31;;;;;;;8.23;6.30;;;25.60;35.40;;;;;;5031459;28;20033;-85
2023/03/23 09:17:58;;;;;;;10.55;5.80;;;26.40;34.80;;;;;;5028666;28;20022;-85
2023/03/23 09:20:26;;;;;;;6.78;6.05;;;27.00;34.20;;;;;;5024986;28;20025;-86
2023/03/23 09:22:54;;;;;;;9.70;6.32;;;26.70;33.70;;;;;;5018807;28;20025;-86
2023/03/23 09:25:24;;;;;;;6.97;6.15;;;26.50;33.70;;;;;;5018513;28;21123;-85
2023/03/23 09:27:53;;;;;;;6.72;6.13;;;26.40;34.00;;;;;;5016069;28;20022;-86
2023/03/23 09:30:20;;;;;;;6.93;5.55;;;26.80;33.60;;;;;;5016139;28;20037;-85
2023/03/23 09:32:47;;;;;;;;;;;26.70;33.30;;;;;;5017586;28;20021;-86
2023/03/23 09:35:16;;;;;;;10.05;7.72;;;26.60;34.50;;;;;;5014379;28;20329;-86
2023/03/23 09:37:44;;;;;;;9.05;6.05;;;26.70;33.70;;;;;;5022524;28;20044;-85
2023/03/23 09:41:14;;;;;;;7.25;5.95;;;26.80;33.40;;;;;;5027596;28;20459;-86
2023/03/23 09:44:22;;;;;;;8.48;6.38;;;26.40;33.80;;;;;;4952861;28;20749;-88
2023/03/23 09:47:15;;;;;;;12.45;6.15;;;26.60;34.20;;;;;;5006545;28;20044;-88
2023/03/23 09:49:57;;;;;;;8.50;6.07;;;26.30;34.10;;;;;;5017283;28;20391;-87
2023/03/23 09:52:33;;;;;;;6.38;5.55;;;26.60;33.70;;;;;;5020130;28;20375;-87
2023/03/23 09:54:59;;;;;;;10.23;6.47;;;26.20;33.40;;;;;;5019685;28;20169;-87
2023/03/23 09:57:43;;;;;;;11.48;6.28;;;24.70;34.70;;;;;;5023634;28;20171;-87
2023/03/23 10:00:19;;;;;;;8.00;6.70;;;24.60;35.40;;;;;;5022217;28;20034;-87
2023/03/23 10:03:02;;;;;;;7.37;6.33;;;25.10;35.00;;;;;;5017903;28;20133;-87
2023/03/23 10:05:32;;;;;;;11.80;7.30;;;24.60;35.20;;;;;;5007774;28;20076;-87
2023/03/23 10:08:00;;;;;;;7.90;6.05;;;25.10;35.50;;;;;;5016567;28;20030;-88
2023/03/23 10:10:49;;;;;;;8.52;6.20;;;25.70;34.80;;;;;;5034826;28;20041;-89
2023/03/23 10:13:40;;;;;;;9.27;5.95;;;25.70;34.70;;;;;;4998946;28;20113;-87
2023/03/23 10:16:16;;;;;;;10.43;7.85;;;26.00;34.20;;;;;;5019551;28;20026;-88
2023/03/23 10:18:54;;;;;;;7.35;5.80;;;26.10;33.30;;;;;;5018707;28;20371;-88
2023/03/23 10:21:23;;;;;;;9.55;5.97;;;26.10;33.40;;;;;;5017284;28;20030;-88
2023/03/23 10:24:03;;;;;;;6.68;5.22;;;26.20;33.40;;;;;;5020175;28;20034;-88
2023/03/23 10:26:29;;;;;;;9.55;6.13;;;25.30;33.30;;;;;;5020108;28;20022;-87
2023/03/23 10:29:00;;;;;;;7.50;6.80;;;23.30;34.50;;;;;;5016650;28;20032;-87
2023/03/23 10:31:34;;;;;;;9.93;6.80;;;21.70;37.40;;;;;;5017902;28;20377;-87
2023/03/23 10:34:11;;;;;;;11.93;6.95;;;20.40;39.30;;;;;;5017787;28;20022;-87
2023/03/23 10:36:41;;;;;;;9.43;6.88;;;19.10;41.30;;;;;;5017225;28;20026;-87
2023/03/23 10:39:12;;;;;;;7.95;6.45;;;18.30;43.00;;;;;;5020191;28;20048;-88
2023/03/23 10:41:39;;;;;;;11.68;7.45;;;17.70;43.90;;;;;;5020717;28;20096;-89
2023/03/23 10:44:17;;;;;;;13.40;8.52;;;16.90;44.10;;;;;;5022183;28;20069;-87
2023/03/23 10:46:48;;;;;;;10.75;8.05;;;16.80;46.00;;;;;;5019642;28;20026;-87
2023/03/23 10:49:30;;;;;;;8.82;5.97;;;16.60;46.70;;;;;;5023409;28;20030;-87
2023/03/23 10:52:37;;;;;;;8.10;6.63;;;16.20;47.40;;;;;;5025962;28;20032;-87
2023/03/23 10:55:14;;;;;;;9.70;6.70;;;15.90;48.20;;;;;;5008475;28;20021;-87
2023/03/23 10:58:02;;;;;;;9.88;7.10;;;15.70;48.70;;;;;;5026211;28;20109;-87
2023/03/23 11:00:30;;;;;;;13.93;6.68;;;15.60;49.00;;;;;;5024235;28;20038;-87
2023/03/23 11:03:02;;;;;;;7.38;5.68;;;15.50;49.20;;;;;;5024804;28;20123;-87
2023/03/23 11:06:08;;;;;;;15.30;7.07;;;15.40;49.60;;;;;;5025832;28;20032;-87
2023/03/23 11:08:35;;;;;;;;;;;15.30;50.00;;;;;;5026684;28;20029;-89
2023/03/23 11:11:24;;;;;;;9.95;5.80;;;15.30;49.90;;;;;;5024261;28;19913;-87
2023/03/23 11:13:57;;;;;;;8.25;6.15;;;15.10;50.20;;;;;;5027976;28;20060;-87
2023/03/23 11:16:29;;;;;;;16.52;10.05;;;15.10;50.30;;;;;;5020648;28;20026;-87
2023/03/23 11:18:55;;;;;;;18.25;10.80;;;15.20;50.20;;;;;;5019248;28;20033;-89
2023/03/23 11:21:24;;;;;;;8.38;5.47;;;15.30;50.10;;;;;;5018257;28;20025;-87
2023/03/23 11:23:53;;;;;;;10.35;5.28;;;15.20;50.10;;;;;;5018217;28;20033;-88
2023/03/23 11:26:26;;;;;;;6.53;4.57;;;15.30;49.70;;;;;;5032689;28;20025;-86
2023/03/23 11:28:52;;;;;;;6.93;5.10;;;15.20;49.80;;;;;;5019752;28;20112;-87
2023/03/23 11:31:27;;;;;;;14.00;5.70;;;15.20;50.00;;;;;;5017334;28;20534;-87
2023/03/23 11:34:16;;;;;;;6.35;4.55;;;15.30;49.90;;;;;;5017302;28;20037;-86
2023/03/23 11:36:52;;;;;;;9.80;5.70;;;15.30;49.60;;;;;;5018945;28;20022;-87
2023/03/23 11:39:30;;;;;;;8.68;5.30;;;15.20;50.00;;;;;;5022775;28;20057;-86
2023/03/23 11:42:20;;;;;;;7.55;6.35;;;15.30;50.10;;;;;;5018714;28;20033;-88
2023/03/23 11:44:46;;;;;;;11.80;6.05;;;15.40;49.80;;;;;;5009446;28;20022;-86
2023/03/23 11:47:25;;;;;;;6.10;4.00;;;15.40;50.10;;;;;;5045204;28;20022;-86
2023/03/23 11:49:56;;;;;;;12.02;5.20;;;15.40;49.80;;;;;;5030433;28;20033;-85
2023/03/23 11:53:07;;;;;;;5.88;4.18;;;15.30;50.50;;;;;;5033875;28;20026;-86
2023/03/23 11:56:01;;;;;;;11.23;4.88;;;15.30;50.30;;;;;;5022505;28;20384;-86
2023/03/23 11:58:32;;;;;;;8.70;5.32;;;15.30;50.40;;;;;;5031251;28;20133;-86
2023/03/23 12:01:36;;;;;;;12.45;5.55;;;15.30;50.70;;;;;;5015384;28;20029;-87
2023/03/23 12:04:32;;;;;;;10.43;5.80;;;15.20;51.00;;;;;;5028618;28;20116;-86
2023/03/23 12:07:33;;;;;;;7.07;5.55;;;15.10;51.20;;;;;;5033989;28;20026;-85
2023/03/23 12:10:26;;;;;;;5.13;4.35;;;15.00;51.50;;;;;;5017703;28;20094;-85
2023/03/23 12:13:11;;;;;;;12.02;5.55;;;15.10;51.40;;;;;;5032598;28;20018;-88
2023/03/23 12:15:52;;;;;;;7.93;5.00;;;15.10;51.60;;;;;;5028259;28;20064;-87
2023/03/23 12:18:22;;;;;;;11.15;4.93;;;15.10;51.50;;;;;;5019147;28;20030;-85
2023/03/23 12:21:15;;;;;;;8.85;4.88;;;15.10;51.60;;;;;;5019099;28;20040;-86
2023/03/23 12:23:49;;;;;;;7.20;5.45;;;15.20;51.70;;;;;;5015949;28;20032;-86
2023/03/23 12:26:53;;;;;;;5.50;4.40;;;15.30;51.60;;;;;;5016548;28;20122;-86
2023/03/23 12:29:31;;;;;;;9.55;5.85;;;15.30;51.60;;;;;;4994770;28;20084;-86
2023/03/23 12:32:20;;;;;;;7.57;5.20;;;15.40;51.60;;;;;;5018809;28;20038;-86
2023/03/23 12:35:01;;;;;;;7.45;5.30;;;15.50;51.30;;;;;;4998222;28;20021;-88
2023/03/23 12:37:38;;;;;;;14.75;5.72;;;15.50;51.40;;;;;;5016327;28;20021;-86
2023/03/23 12:40:10;;;;;;;12.02;5.10;;;15.50;51.20;;;;;;5031278;28;20033;-87
2023/03/23 12:42:55;;;;;;;14.63;7.95;;;15.40;51.70;;;;;;5016501;28;20419;-86
2023/03/23 12:45:45;;;;;;;7.78;5.07;;;15.40;51.60;;;;;;5017192;28;20018;-87
2023/03/23 12:48:16;;;;;;;5.85;4.63;;;15.40;51.90;;;;;;5016571;28;20115;-86
2023/03/23 12:51:06;;;;;;;5.53;4.03;;;15.30;51.70;;;;;;5017847;28;20057;-86
2023/03/23 12:53:46;;;;;;;10.48;5.18;;;15.10;52.00;;;;;;5009384;28;20513;-86
2023/03/23 12:56:25;;;;;;;11.45;5.97;;;15.10;52.40;;;;;;5031360;28;20022;-87
2023/03/23 12:59:01;;;;;;;7.07;4.65;;;15.00;52.80;;;;;;5016947;28;20060;-87
2023/03/23 13:01:36;;;;;;;5.63;4.60;;;15.00;52.90;;;;;;5019014;28;20428;-85
2023/03/23 13:04:09;;;;;;;10.57;5.90;;;15.00;52.90;;;;;;5034308;28;20050;-86
2023/03/23 13:06:38;;;;;;;8.15;4.90;;;14.90;53.00;;;;;;5017422;28;20025;-87
2023/03/23 13:09:24;;;;;;;10.45;5.85;;;14.90;53.20;;;;;;5015071;28;20540;-86
2023/03/23 13:11:53;;;;;;;8.40;5.45;;;14.80;53.40;;;;;;5032595;28;20092;-86
2023/03/23 13:14:41;;;;;;;6.93;4.68;;;14.70;53.70;;;;;;5018379;28;20022;-87